首页
METAR-TAF:

METAR-TAF

机场 :

Tekamah Municipal Airport

Tekamah, 內布拉斯加州, 美国

纬度: 41-46-01N, 经度: 096-10-40W, 海拔: 313米

当前天气观测

该预报发布于25分钟前的04:54 UTC
风速6节,风向北转东北
温度 18°C
湿度 88%
气压 1011 hPa
能見度: 14.5公里
少量云层高于10000英尺

METAR: KTQE 250454Z AUTO 02006KT 9SM FEW100 18/16 A2984 RMK AO2 SLP095 T01780156

时间: 00:19 (05:19 UTC)


TAF: 丢失

超过4000个机场的气象观测和天气预报(METAR&TAF报告)。

可查询的气象台以黄色和红色小点在地图上表示。

将鼠标移到小点上方,可查看气象台名称。

然后点击查看天气观测和预报。

如需切换地图:点击带黑十字的绿色按钮放大地图;点击带横线的绿色按钮缩小地图;或者点击绿色箭头查看邻近地区的地图。


METAR-TAF: